Time,TemperatureF,DewpointF,PressureIn,WindDirection,WindDirectionDegrees,WindSpeedMPH,WindSpeedGustMPH,Humidity,HourlyPrecipIn,Conditions,Clouds,dailyrainin,SoftwareType,DateUTC
2013-01-04 00:02:00,10.0,6.9,30.23,West,269,4.0,10.0,87,0.00,,,0.00,Wunderground v.1.15,2013-01-04 06:02:00,
2013-01-04 00:07:00,9.8,6.7,30.23,West,280,4.0,10.0,87,0.00,,,0.00,Wunderground v.1.15,2013-01-04 06:07:00,
2013-01-04 00:14:00,9.8,6.7,30.23,WSW,251,3.0,10.0,87,0.00,,,0.00,Wunderground v.1.15,2013-01-04 06:14:00,
2013-01-04 00:19:00,9.9,7.1,30.23,SW,235,2.0,10.0,88,0.00,,,0.00,Wunderground v.1.15,2013-01-04 06:19:00,
2013-01-04 00:25:00,10.1,7.3,30.23,West,280,3.0,10.0,88,0.00,,,0.00,Wunderground v.1.15,2013-01-04 06:25:00,
2013-01-04 00:32:00,10.3,7.5,30.23,SW,226,2.0,10.0,88,0.00,,,0.00,Wunderground v.1.15,2013-01-04 06:32:00,
2013-01-04 00:37:00,10.4,7.6,30.23,SSW,205,2.0,10.0,88,0.00,,,0.00,Wunderground v.1.15,2013-01-04 06:37:00,
2013-01-04 00:43:00,10.4,7.6,30.23,WNW,284,2.0,10.0,88,0.00,,,0.00,Wunderground v.1.15,2013-01-04 06:43:00,
2013-01-04 00:49:00,10.4,7.6,30.23,WSW,248,2.0,10.0,88,0.00,,,0.00,Wunderground v.1.15,2013-01-04 06:49:00,
2013-01-04 00:55:00,10.7,8.1,30.23,West,259,3.0,10.0,89,0.00,,,0.00,Wunderground v.1.15,2013-01-04 06:55:00,
2013-01-04 01:01:00,10.9,8.0,30.23,WSW,238,4.0,10.0,88,0.00,,,0.00,Wunderground v.1.15,2013-01-04 07:01:00,
2013-01-04 01:07:00,10.9,8.0,30.23,WSW,245,3.0,10.0,88,0.00,,,0.00,Wunderground v.1.15,2013-01-04 07:07:00,
2013-01-04 01:13:00,10.7,7.8,30.23,NW,311,2.0,10.0,88,0.00,,,0.00,Wunderground v.1.15,2013-01-04 07:13:00,
2013-01-04 01:19:00,10.8,8.2,30.23,WNW,288,2.0,10.0,89,0.00,,,0.00,Wunderground v.1.15,2013-01-04 07:19:00,
2013-01-04 01:25:00,11.0,8.4,30.23,WSW,255,3.0,10.0,89,0.00,,,0.00,Wunderground v.1.15,2013-01-04 07:25:00,
2013-01-04 01:31:00,11.0,8.1,30.23,SSW,198,3.0,10.0,88,0.00,,,0.00,Wunderground v.1.15,2013-01-04 07:31:00,
2013-01-04 01:37:00,10.8,7.9,30.23,SW,229,4.0,10.0,88,0.00,,,0.00,Wunderground v.1.15,2013-01-04 07:37:00,
2013-01-04 01:43:00,10.6,7.7,30.23,WSW,242,3.0,10.0,88,0.00,,,0.00,Wunderground v.1.15,2013-01-04 07:43:00,
2013-01-04 01:49:00,10.6,8.0,30.22,WSW,256,3.0,10.0,89,0.00,,,0.00,Wunderground v.1.15,2013-01-04 07:49:00,
2013-01-04 01:55:00,10.7,8.1,30.22,West,273,3.0,10.0,89,0.00,,,0.00,Wunderground v.1.15,2013-01-04 07:55:00,
2013-01-04 02:01:00,10.9,8.3,30.22,SW,236,3.0,10.0,89,0.00,,,0.00,Wunderground v.1.15,2013-01-04 08:01:00,
2013-01-04 02:08:00,11.0,8.4,30.22,West,260,5.0,10.0,89,0.00,,,0.00,Wunderground v.1.15,2013-01-04 08:08:00,
2013-01-04 02:13:00,11.1,8.2,30.22,SW,229,5.0,10.0,88,0.00,,,0.00,Wunderground v.1.15,2013-01-04 08:13:00,
2013-01-04 02:19:00,11.1,8.2,30.22,SW,221,6.0,10.0,88,0.00,,,0.00,Wunderground v.1.15,2013-01-04 08:19:00,
2013-01-04 02:25:00,10.9,8.0,30.22,WSW,248,6.0,10.0,88,0.00,,,0.00,Wunderground v.1.15,2013-01-04 08:25:00,
2013-01-04 02:31:00,10.8,7.9,30.22,SW,222,4.0,10.0,88,0.00,,,0.00,Wunderground v.1.15,2013-01-04 08:31:00,
2013-01-04 02:38:00,10.8,7.9,30.22,West,262,4.0,10.0,88,0.00,,,0.00,Wunderground v.1.15,2013-01-04 08:38:00,
2013-01-04 02:43:00,10.7,7.8,30.22,SW,225,2.0,10.0,88,0.00,,,0.00,Wunderground v.1.15,2013-01-04 08:43:00,
2013-01-04 02:49:00,10.6,8.0,30.22,WNW,301,1.0,10.0,89,0.00,,,0.00,Wunderground v.1.15,2013-01-04 08:49:00,
2013-01-04 02:55:00,10.7,8.1,30.22,West,266,1.0,10.0,89,0.00,,,0.00,Wunderground v.1.15,2013-01-04 08:55:00,
2013-01-04 03:01:00,10.7,8.1,30.22,WSW,245,1.0,10.0,89,0.00,,,0.00,Wunderground v.1.15,2013-01-04 09:01:00,
2013-01-04 03:08:00,10.8,8.2,30.22,WNW,292,1.0,10.0,89,0.00,,,0.00,Wunderground v.1.15,2013-01-04 09:08:00,
2013-01-04 03:13:00,11.1,8.5,30.22,WSW,238,2.0,10.0,89,0.00,,,0.00,Wunderground v.1.15,2013-01-04 09:13:00,
2013-01-04 03:19:00,11.5,8.9,30.21,West,276,3.0,10.0,89,0.00,,,0.00,Wunderground v.1.15,2013-01-04 09:19:00,
2013-01-04 03:26:00,11.7,8.8,30.21,SSW,195,2.0,10.0,88,0.00,,,0.00,Wunderground v.1.15,2013-01-04 09:26:00,
2013-01-04 03:31:00,11.8,9.2,30.21,SSW,211,2.0,10.0,89,0.00,,,0.00,Wunderground v.1.15,2013-01-04 09:31:00,
2013-01-04 03:38:00,11.9,9.0,30.21,SW,236,3.0,10.0,88,0.00,,,0.00,Wunderground v.1.15,2013-01-04 09:38:00,
2013-01-04 03:43:00,11.9,9.0,30.21,WSW,257,2.0,10.0,88,0.00,,,0.00,Wunderground v.1.15,2013-01-04 09:43:00,
2013-01-04 03:49:00,12.1,9.5,30.20,SW,225,3.0,10.0,89,0.00,,,0.00,Wunderground v.1.15,2013-01-04 09:49:00,
2013-01-04 03:55:00,12.4,9.5,30.20,SW,232,5.0,10.0,88,0.00,,,0.00,Wunderground v.1.15,2013-01-04 09:55:00,
2013-01-04 04:01:00,12.4,9.5,30.20,WSW,245,5.0,10.0,88,0.00,,,0.00,Wunderground v.1.15,2013-01-04 10:01:00,
2013-01-04 04:07:00,12.7,9.8,30.19,WSW,252,5.0,10.0,88,0.00,,,0.00,Wunderground v.1.15,2013-01-04 10:07:00,
2013-01-04 04:13:00,12.9,10.3,30.19,SW,226,4.0,10.0,89,0.00,,,0.00,Wunderground v.1.15,2013-01-04 10:13:00,
2013-01-04 04:19:00,13.2,10.6,30.19,West,266,5.0,10.0,89,0.00,,,0.00,Wunderground v.1.15,2013-01-04 10:19:00,
2013-01-04 04:25:00,13.7,11.1,30.18,West,276,5.0,10.0,89,0.00,,,0.00,Wunderground v.1.15,2013-01-04 10:25:00,
2013-01-04 04:31:00,13.9,11.0,30.18,WSW,257,5.0,10.0,88,0.00,,,0.00,Wunderground v.1.15,2013-01-04 10:31:00,
2013-01-04 04:38:00,14.1,11.2,30.18,WNW,285,6.0,10.0,88,0.00,,,0.00,Wunderground v.1.15,2013-01-04 10:38:00,
2013-01-04 04:43:00,14.3,11.4,30.18,West,273,6.0,10.0,88,0.00,,,0.00,Wunderground v.1.15,2013-01-04 10:43:00,
2013-01-04 04:49:00,14.3,11.1,30.18,WSW,245,7.0,7.0,87,0.00,,,0.00,Wunderground v.1.15,2013-01-04 10:49:00,
2013-01-04 04:55:00,14.3,11.4,30.17,SW,231,5.0,11.0,88,0.00,,,0.00,Wunderground v.1.15,2013-01-04 10:55:00,
2013-01-04 05:01:00,14.5,11.6,30.17,SW,228,6.0,11.0,88,0.00,,,0.00,Wunderground v.1.15,2013-01-04 11:01:00,
2013-01-04 05:08:00,14.6,11.4,30.17,West,280,6.0,11.0,87,0.00,,,0.00,Wunderground v.1.15,2013-01-04 11:08:00,
2013-01-04 05:13:00,14.9,11.7,30.18,WSW,257,6.0,10.0,87,0.00,,,0.00,Wunderground v.1.15,2013-01-04 11:13:00,
2013-01-04 05:19:00,14.8,11.6,30.17,SW,229,7.0,7.0,87,0.00,,,0.00,Wunderground v.1.15,2013-01-04 11:19:00,
2013-01-04 05:26:00,14.8,11.6,30.17,West,281,6.0,10.0,87,0.00,,,0.00,Wunderground v.1.15,2013-01-04 11:26:00,
2013-01-04 05:31:00,14.8,11.6,30.18,West,266,6.0,10.0,87,0.00,,,0.00,Wunderground v.1.15,2013-01-04 11:31:00,
2013-01-04 05:38:00,14.7,11.5,30.18,West,271,5.0,10.0,87,0.00,,,0.00,Wunderground v.1.15,2013-01-04 11:38:00,
2013-01-04 05:43:00,14.9,11.7,30.18,West,262,6.0,10.0,87,0.00,,,0.00,Wunderground v.1.15,2013-01-04 11:43:00,
2013-01-04 05:49:00,15.0,11.8,30.17,West,268,6.0,10.0,87,0.00,,,0.00,Wunderground v.1.15,2013-01-04 11:49:00,
2013-01-04 05:55:00,15.1,11.9,30.18,West,280,7.0,10.0,87,0.00,,,0.00,Wunderground v.1.15,2013-01-04 11:55:00,
2013-01-04 06:01:00,14.9,11.7,30.18,West,263,6.0,10.0,87,0.00,,,0.00,Wunderground v.1.15,2013-01-04 12:01:00,
2013-01-04 06:07:00,14.9,11.7,30.17,WSW,239,6.0,10.0,87,0.00,,,0.00,Wunderground v.1.15,2013-01-04 12:07:00,
2013-01-04 06:13:00,14.8,11.6,30.17,West,260,6.0,10.0,87,0.00,,,0.00,Wunderground v.1.15,2013-01-04 12:13:00,
2013-01-04 06:19:00,14.8,11.6,30.17,WSW,255,6.0,10.0,87,0.00,,,0.00,Wunderground v.1.15,2013-01-04 12:19:00,
2013-01-04 06:25:00,15.0,12.1,30.17,West,278,6.0,12.0,88,0.00,,,0.00,Wunderground v.1.15,2013-01-04 12:25:00,
2013-01-04 06:31:00,15.1,12.2,30.17,WNW,282,6.0,7.0,88,0.00,,,0.00,Wunderground v.1.15,2013-01-04 12:31:00,
2013-01-04 06:38:00,15.3,12.4,30.17,West,269,5.0,10.0,88,0.00,,,0.00,Wunderground v.1.15,2013-01-04 12:38:00,
2013-01-04 06:43:00,15.5,12.6,30.17,SW,230,5.0,10.0,88,0.00,,,0.00,Wunderground v.1.15,2013-01-04 12:43:00,
2013-01-04 06:49:00,15.6,12.4,30.18,West,259,4.0,10.0,87,0.00,,,0.00,Wunderground v.1.15,2013-01-04 12:49:00,
2013-01-04 06:55:00,15.7,12.5,30.18,West,263,4.0,10.0,87,0.00,,,0.00,Wunderground v.1.15,2013-01-04 12:55:00,
2013-01-04 07:01:00,15.8,12.6,30.18,WSW,257,5.0,8.0,87,0.00,,,0.00,Wunderground v.1.15,2013-01-04 13:01:00,
2013-01-04 07:08:00,15.8,12.6,30.17,WSW,253,5.0,10.0,87,0.00,,,0.00,Wunderground v.1.15,2013-01-04 13:08:00,
2013-01-04 07:13:00,15.8,12.6,30.17,West,266,6.0,10.0,87,0.00,,,0.00,Wunderground v.1.15,2013-01-04 13:13:00,
2013-01-04 07:19:00,15.7,12.5,30.18,WSW,257,5.0,5.0,87,0.00,,,0.00,Wunderground v.1.15,2013-01-04 13:19:00,
2013-01-04 07:25:00,15.8,12.6,30.18,SSW,193,3.0,10.0,87,0.00,,,0.00,Wunderground v.1.15,2013-01-04 13:25:00,
2013-01-04 07:31:00,15.9,12.7,30.18,WSW,257,3.0,10.0,87,0.00,,,0.00,Wunderground v.1.15,2013-01-04 13:31:00,
2013-01-04 07:37:00,16.0,13.1,30.18,West,275,3.0,10.0,88,0.00,,,0.00,Wunderground v.1.15,2013-01-04 13:37:00,
2013-01-04 07:43:00,16.1,12.9,30.18,SSE,168,3.0,10.0,87,0.00,,,0.00,Wunderground v.1.15,2013-01-04 13:43:00,
2013-01-04 07:49:00,16.1,12.9,30.19,NW,314,2.0,2.0,87,0.00,,,0.00,Wunderground v.1.15,2013-01-04 13:49:00,
2013-01-04 07:55:00,16.2,13.0,30.19,WSW,242,2.0,10.0,87,0.00,,,0.00,Wunderground v.1.15,2013-01-04 13:55:00,
2013-01-04 08:01:00,16.3,13.4,30.18,WSW,253,2.0,10.0,88,0.00,,,0.00,Wunderground v.1.15,2013-01-04 14:01:00,
2013-01-04 08:07:00,16.4,13.2,30.18,WSW,238,3.0,10.0,87,0.00,,,0.00,Wunderground v.1.15,2013-01-04 14:07:00,
2013-01-04 08:14:00,16.7,13.5,30.18,WNW,289,4.0,10.0,87,0.00,,,0.00,Wunderground v.1.15,2013-01-04 14:14:00,
2013-01-04 08:19:00,16.8,13.3,30.18,West,270,4.0,10.0,86,0.00,,,0.00,Wunderground v.1.15,2013-01-04 14:19:00,
2013-01-04 08:25:00,16.7,13.2,30.18,SW,219,5.0,10.0,86,0.00,,,0.00,Wunderground v.1.15,2013-01-04 14:25:00,
2013-01-04 08:32:00,16.9,13.4,30.18,West,278,5.0,10.0,86,0.00,,,0.00,Wunderground v.1.15,2013-01-04 14:32:00,
2013-01-04 08:37:00,17.1,13.6,30.18,WNW,298,5.0,10.0,86,0.00,,,0.00,Wunderground v.1.15,2013-01-04 14:37:00,
2013-01-04 08:44:00,17.3,13.8,30.18,WSW,253,5.0,10.0,86,0.00,,,0.00,Wunderground v.1.15,2013-01-04 14:44:00,
2013-01-04 08:49:00,17.5,14.0,30.18,WSW,242,6.0,6.0,86,0.00,,,0.00,Wunderground v.1.15,2013-01-04 14:49:00,
2013-01-04 08:55:00,17.8,14.1,30.18,West,262,5.0,10.0,85,0.00,,,0.00,Wunderground v.1.15,2013-01-04 14:55:00,
2013-01-04 09:01:00,17.9,14.4,30.18,SW,217,4.0,8.0,86,0.00,,,0.00,Wunderground v.1.15,2013-01-04 15:01:00,
2013-01-04 09:07:00,18.1,14.4,30.18,WSW,248,5.0,10.0,85,0.00,,,0.00,Wunderground v.1.15,2013-01-04 15:07:00,
2013-01-04 09:13:00,18.4,14.6,30.18,SW,224,5.0,10.0,85,0.00,,,0.00,Wunderground v.1.15,2013-01-04 15:13:00,
2013-01-04 09:20:00,18.6,14.8,30.18,SW,232,5.0,10.0,85,0.00,,,0.00,Wunderground v.1.15,2013-01-04 15:20:00,
2013-01-04 09:25:00,18.9,14.9,30.18,West,268,5.0,10.0,84,0.00,,,0.00,Wunderground v.1.15,2013-01-04 15:25:00,
2013-01-04 09:32:00,19.2,15.2,30.18,SW,226,4.0,10.0,84,0.00,,,0.00,Wunderground v.1.15,2013-01-04 15:32:00,
2013-01-04 09:37:00,19.6,15.6,30.18,SSW,205,4.0,10.0,84,0.00,,,0.00,Wunderground v.1.15,2013-01-04 15:37:00,
2013-01-04 09:44:00,20.1,16.0,30.18,West,277,4.0,10.0,84,0.00,,,0.00,Wunderground v.1.15,2013-01-04 15:44:00,
2013-01-04 09:49:00,20.6,16.3,30.18,West,277,5.0,10.0,83,0.00,,,0.00,Wunderground v.1.15,2013-01-04 15:49:00,
2013-01-04 09:55:00,21.1,16.7,30.18,SW,235,6.0,15.0,83,0.00,,,0.00,Wunderground v.1.15,2013-01-04 15:55:00,
2013-01-04 10:01:00,21.7,17.1,30.18,WSW,248,7.0,12.0,82,0.00,,,0.00,Wunderground v.1.15,2013-01-04 16:01:00,
2013-01-04 10:07:00,22.2,17.5,30.18,WNW,283,7.0,12.0,82,0.00,,,0.00,Wunderground v.1.15,2013-01-04 16:07:00,
2013-01-04 10:14:00,22.8,17.8,30.19,WSW,239,5.0,10.0,81,0.00,,,0.00,Wunderground v.1.15,2013-01-04 16:14:00,
2013-01-04 10:19:00,23.1,17.8,30.19,WNW,287,5.0,10.0,80,0.00,,,0.00,Wunderground v.1.15,2013-01-04 16:19:00,
2013-01-04 10:25:00,23.4,18.1,30.18,WNW,287,6.0,10.0,80,0.00,,,0.00,Wunderground v.1.15,2013-01-04 16:25:00,
2013-01-04 10:31:00,23.8,18.2,30.18,WSW,253,6.0,10.0,79,0.00,,,0.00,Wunderground v.1.15,2013-01-04 16:31:00,
2013-01-04 10:37:00,23.9,18.3,30.19,WSW,239,6.0,10.0,79,0.00,,,0.00,Wunderground v.1.15,2013-01-04 16:37:00,
2013-01-04 10:43:00,24.1,18.5,30.19,WSW,255,7.0,10.0,79,0.00,,,0.00,Wunderground v.1.15,2013-01-04 16:43:00,
2013-01-04 10:49:00,24.5,18.9,30.19,West,267,6.0,10.0,79,0.00,,,0.00,Wunderground v.1.15,2013-01-04 16:49:00,
2013-01-04 10:55:00,24.7,18.8,30.18,WSW,253,6.0,10.0,78,0.00,,,0.00,Wunderground v.1.15,2013-01-04 16:55:00,
2013-01-04 11:02:00,24.9,19.0,30.19,WNW,284,7.0,13.0,78,0.00,,,0.00,Wunderground v.1.15,2013-01-04 17:02:00,
2013-01-04 11:07:00,25.2,19.3,30.18,NW,305,5.0,13.0,78,0.00,,,0.00,Wunderground v.1.15,2013-01-04 17:07:00,
2013-01-04 11:14:00,25.3,19.1,30.18,West,274,5.0,10.0,77,0.00,,,0.00,Wunderground v.1.15,2013-01-04 17:14:00,
2013-01-04 11:19:00,25.5,19.3,30.18,South,185,6.0,6.0,77,0.00,,,0.00,Wunderground v.1.15,2013-01-04 17:19:00,
2013-01-04 11:25:00,25.7,19.5,30.18,West,271,6.0,12.0,77,0.00,,,0.00,Wunderground v.1.15,2013-01-04 17:25:00,
2013-01-04 11:31:00,25.7,19.5,30.17,WSW,255,6.0,9.0,77,0.00,,,0.00,Wunderground v.1.15,2013-01-04 17:31:00,
2013-01-04 11:37:00,25.8,19.3,30.17,NW,314,6.0,15.0,76,0.00,,,0.00,Wunderground v.1.15,2013-01-04 17:37:00,
2013-01-04 11:43:00,25.9,19.4,30.17,SW,217,6.0,10.0,76,0.00,,,0.00,Wunderground v.1.15,2013-01-04 17:43:00,
2013-01-04 11:49:00,26.1,19.9,30.17,SW,218,6.0,6.0,77,0.00,,,0.00,Wunderground v.1.15,2013-01-04 17:49:00,
2013-01-04 11:55:00,26.5,20.0,30.17,WSW,238,5.0,14.0,76,0.00,,,0.00,Wunderground v.1.15,2013-01-04 17:55:00,
2013-01-04 12:01:00,26.8,20.2,30.17,West,270,5.0,10.0,76,0.00,,,0.00,Wunderground v.1.15,2013-01-04 18:01:00,
2013-01-04 12:07:00,27.3,20.1,30.17,WSW,248,4.0,10.0,74,0.00,,,0.00,Wunderground v.1.15,2013-01-04 18:07:00,
2013-01-04 12:13:00,27.5,20.3,30.17,WNW,297,5.0,10.0,74,0.00,,,0.00,Wunderground v.1.15,2013-01-04 18:13:00,
2013-01-04 12:19:00,27.3,19.8,30.17,SW,228,6.0,17.0,73,0.00,,,0.00,Wunderground v.1.15,2013-01-04 18:19:00,
2013-01-04 12:25:00,27.3,20.1,30.16,WSW,246,8.0,17.0,74,0.00,,,0.00,Wunderground v.1.15,2013-01-04 18:25:00,
2013-01-04 12:31:00,27.4,20.2,30.15,WNW,295,7.0,11.0,74,0.00,,,0.00,Wunderground v.1.15,2013-01-04 18:31:00,
2013-01-04 12:38:00,27.7,20.5,30.16,WSW,256,5.0,11.0,74,0.00,,,0.00,Wunderground v.1.15,2013-01-04 18:38:00,
2013-01-04 12:43:00,28.1,20.9,30.16,North,6,4.0,10.0,74,0.00,,,0.00,Wunderground v.1.15,2013-01-04 18:43:00,
2013-01-04 12:49:00,28.2,20.7,30.15,NW,311,5.0,5.0,73,0.00,,,0.00,Wunderground v.1.15,2013-01-04 18:49:00,
2013-01-04 12:55:00,28.5,20.6,30.15,NNW,329,5.0,10.0,72,0.00,,,0.00,Wunderground v.1.15,2013-01-04 18:55:00,
2013-01-04 13:01:00,28.6,20.7,30.15,WSW,252,5.0,8.0,72,0.00,,,0.00,Wunderground v.1.15,2013-01-04 19:01:00,
2013-01-04 13:08:00,28.8,20.6,30.15,West,271,5.0,10.0,71,0.00,,,0.00,Wunderground v.1.15,2013-01-04 19:08:00,
2013-01-04 13:13:00,28.9,20.7,30.15,WNW,295,4.0,10.0,71,0.00,,,0.00,Wunderground v.1.15,2013-01-04 19:13:00,
2013-01-04 13:19:00,29.0,20.8,30.15,WNW,285,4.0,10.0,71,0.00,,,0.00,Wunderground v.1.15,2013-01-04 19:19:00,
2013-01-04 13:25:00,29.1,21.2,30.15,WNW,287,5.0,11.0,72,0.00,,,0.00,Wunderground v.1.15,2013-01-04 19:25:00,
2013-01-04 13:31:00,29.1,20.9,30.15,South,181,5.0,6.0,71,0.00,,,0.00,Wunderground v.1.15,2013-01-04 19:31:00,
2013-01-04 13:38:00,29.2,21.0,30.15,WSW,242,5.0,10.0,71,0.00,,,0.00,Wunderground v.1.15,2013-01-04 19:38:00,
2013-01-04 13:43:00,29.2,21.0,30.14,WNW,297,5.0,10.0,71,0.00,,,0.00,Wunderground v.1.15,2013-01-04 19:43:00,
2013-01-04 13:49:00,29.4,21.5,30.15,WNW,293,5.0,10.0,72,0.00,,,0.00,Wunderground v.1.15,2013-01-04 19:49:00,
2013-01-04 13:55:00,29.5,21.6,30.15,NW,326,5.0,10.0,72,0.00,,,0.00,Wunderground v.1.15,2013-01-04 19:55:00,
2013-01-04 14:01:00,29.8,21.9,30.14,West,265,3.0,10.0,72,0.00,,,0.00,Wunderground v.1.15,2013-01-04 20:01:00,
2013-01-04 14:08:00,29.4,21.2,30.14,WSW,248,5.0,10.0,71,0.00,,,0.00,Wunderground v.1.15,2013-01-04 20:08:00,
2013-01-04 14:13:00,29.4,21.2,30.14,WSW,254,6.0,10.0,71,0.00,,,0.00,Wunderground v.1.15,2013-01-04 20:13:00,
2013-01-04 14:19:00,29.8,21.9,30.14,WSW,245,5.0,10.0,72,0.00,,,0.00,Wunderground v.1.15,2013-01-04 20:19:00,
2013-01-04 14:26:00,29.8,21.5,30.14,WNW,283,4.0,10.0,71,0.00,,,0.00,Wunderground v.1.15,2013-01-04 20:26:00,
2013-01-04 14:31:00,30.0,21.7,30.14,WSW,247,4.0,10.0,71,0.00,,,0.00,Wunderground v.1.15,2013-01-04 20:31:00,
2013-01-04 14:38:00,29.9,21.6,30.14,NW,325,4.0,10.0,71,0.00,,,0.00,Wunderground v.1.15,2013-01-04 20:38:00,
2013-01-04 14:43:00,30.0,22.1,30.15,WSW,240,5.0,10.0,72,0.00,,,0.00,Wunderground v.1.15,2013-01-04 20:43:00,
2013-01-04 14:49:00,30.2,21.9,30.15,NNW,329,3.0,10.0,71,0.00,,,0.00,Wunderground v.1.15,2013-01-04 20:49:00,
2013-01-04 14:55:00,30.1,21.8,30.15,West,266,4.0,10.0,71,0.00,,,0.00,Wunderground v.1.15,2013-01-04 20:55:00,
2013-01-04 15:01:00,30.1,21.8,30.15,West,276,4.0,10.0,71,0.00,,,0.00,Wunderground v.1.15,2013-01-04 21:01:00,
2013-01-04 15:07:00,30.0,21.7,30.15,West,270,4.0,10.0,71,0.00,,,0.00,Wunderground v.1.15,2013-01-04 21:07:00,
2013-01-04 15:13:00,30.2,21.9,30.15,NW,308,4.0,10.0,71,0.00,,,0.00,Wunderground v.1.15,2013-01-04 21:13:00,
2013-01-04 15:19:00,30.2,21.9,30.15,WSW,257,4.0,4.0,71,0.00,,,0.00,Wunderground v.1.15,2013-01-04 21:19:00,
2013-01-04 15:26:00,30.3,22.0,30.15,NW,311,4.0,10.0,71,0.00,,,0.00,Wunderground v.1.15,2013-01-04 21:26:00,
2013-01-04 15:31:00,30.3,22.0,30.15,SW,233,4.0,7.0,71,0.00,,,0.00,Wunderground v.1.15,2013-01-04 21:31:00,
2013-01-04 15:37:00,30.5,22.2,30.15,SW,224,3.0,10.0,71,0.00,,,0.00,Wunderground v.1.15,2013-01-04 21:37:00,
2013-01-04 15:43:00,30.3,22.4,30.15,WSW,239,3.0,7.0,72,0.00,,,0.00,Wunderground v.1.15,2013-01-04 21:43:00,
2013-01-04 15:49:00,30.1,22.2,30.16,WSW,248,4.0,4.0,72,0.00,,,0.00,Wunderground v.1.15,2013-01-04 21:49:00,
2013-01-04 15:56:00,30.1,22.2,30.16,WSW,245,4.0,10.0,72,0.00,,,0.00,Wunderground v.1.15,2013-01-04 21:56:00,
2013-01-04 16:01:00,30.1,22.2,30.15,West,262,3.0,8.0,72,0.00,,,0.00,Wunderground v.1.15,2013-01-04 22:01:00,
2013-01-04 16:07:00,29.9,22.0,30.15,WSW,243,4.0,10.0,72,0.00,,,0.00,Wunderground v.1.15,2013-01-04 22:07:00,
2013-01-04 16:13:00,29.8,21.9,30.16,West,272,4.0,10.0,72,0.00,,,0.00,Wunderground v.1.15,2013-01-04 22:13:00,
2013-01-04 16:19:00,29.5,21.9,30.16,West,264,3.0,3.0,73,0.00,,,0.00,Wunderground v.1.15,2013-01-04 22:19:00,
2013-01-04 16:25:00,29.0,21.7,30.16,WSW,248,2.0,10.0,74,0.00,,,0.00,Wunderground v.1.15,2013-01-04 22:25:00,
2013-01-04 16:31:00,28.7,21.8,30.16,WSW,239,3.0,10.0,75,0.00,,,0.00,Wunderground v.1.15,2013-01-04 22:31:00,
2013-01-04 16:38:00,28.4,21.5,30.15,WSW,252,3.0,10.0,75,0.00,,,0.00,Wunderground v.1.15,2013-01-04 22:38:00,
2013-01-04 16:43:00,28.1,21.5,30.16,WSW,238,3.0,10.0,76,0.00,,,0.00,Wunderground v.1.15,2013-01-04 22:43:00,
2013-01-04 16:49:00,27.9,21.3,30.16,SW,235,3.0,3.0,76,0.00,,,0.00,Wunderground v.1.15,2013-01-04 22:49:00,
2013-01-04 16:55:00,27.5,21.2,30.16,SW,226,3.0,10.0,77,0.00,,,0.00,Wunderground v.1.15,2013-01-04 22:55:00,
2013-01-04 17:01:00,27.1,21.2,30.16,WSW,249,3.0,10.0,78,0.00,,,0.00,Wunderground v.1.15,2013-01-04 23:01:00,
2013-01-04 17:07:00,26.9,21.0,30.16,West,263,3.0,10.0,78,0.00,,,0.00,Wunderground v.1.15,2013-01-04 23:07:00,
2013-01-04 17:13:00,26.6,21.0,30.16,SW,226,2.0,10.0,79,0.00,,,0.00,Wunderground v.1.15,2013-01-04 23:13:00,
2013-01-04 17:20:00,26.4,20.8,30.16,SW,214,2.0,2.0,79,0.00,,,0.00,Wunderground v.1.15,2013-01-04 23:20:00,
2013-01-04 17:25:00,26.3,20.7,30.16,West,260,1.0,10.0,79,0.00,,,0.00,Wunderground v.1.15,2013-01-04 23:25:00,
2013-01-04 17:31:00,26.0,20.4,30.16,SW,219,1.0,2.0,79,0.00,,,0.00,Wunderground v.1.15,2013-01-04 23:31:00,
2013-01-04 17:37:00,25.8,20.5,30.16,SW,217,1.0,10.0,80,0.00,,,0.00,Wunderground v.1.15,2013-01-04 23:37:00,
2013-01-04 17:43:00,25.5,20.2,30.16,WSW,248,0.0,10.0,80,0.00,,,0.00,Wunderground v.1.15,2013-01-04 23:43:00,
2013-01-04 17:50:00,25.3,20.3,30.16,SW,217,1.0,1.0,81,0.00,,,0.00,Wunderground v.1.15,2013-01-04 23:50:00,
2013-01-04 17:55:00,25.0,20.0,30.16,WSW,248,0.0,10.0,81,0.00,,,0.00,Wunderground v.1.15,2013-01-04 23:55:00,
2013-01-04 18:02:00,24.6,19.6,30.16,WSW,245,0.0,10.0,81,0.00,,,0.00,Wunderground v.1.15,2013-01-05 00:02:00,
2013-01-04 18:07:00,24.3,19.6,30.16,WSW,252,0.0,10.0,82,0.00,,,0.00,Wunderground v.1.15,2013-01-05 00:07:00,
2013-01-04 18:13:00,24.2,19.5,30.17,West,259,0.0,10.0,82,0.00,,,0.00,Wunderground v.1.15,2013-01-05 00:13:00,
2013-01-04 18:20:00,24.0,19.6,30.17,WSW,253,0.0,10.0,83,0.00,,,0.00,Wunderground v.1.15,2013-01-05 00:20:00,
2013-01-04 18:25:00,23.7,19.3,30.17,SSW,201,0.0,10.0,83,0.00,,,0.00,Wunderground v.1.15,2013-01-05 00:25:00,
2013-01-04 18:32:00,23.1,18.7,30.17,South,177,0.0,10.0,83,0.00,,,0.00,Wunderground v.1.15,2013-01-05 00:32:00,
2013-01-04 18:37:00,22.7,18.6,30.17,South,177,0.0,10.0,84,0.00,,,0.00,Wunderground v.1.15,2013-01-05 00:37:00,
2013-01-04 18:43:00,22.7,18.9,30.17,West,259,0.0,10.0,85,0.00,,,0.00,Wunderground v.1.15,2013-01-05 00:43:00,
2013-01-04 18:49:00,22.9,19.1,30.18,West,260,0.0,10.0,85,0.00,,,0.00,Wunderground v.1.15,2013-01-05 00:49:00,
2013-01-04 18:55:00,22.7,18.9,30.18,WSW,248,0.0,10.0,85,0.00,,,0.00,Wunderground v.1.15,2013-01-05 00:55:00,
2013-01-04 19:01:00,22.7,18.9,30.18,SW,236,0.0,10.0,85,0.00,,,0.00,Wunderground v.1.15,2013-01-05 01:01:00,
2013-01-04 19:07:00,22.6,18.8,30.18,WSW,242,0.0,10.0,85,0.00,,,0.00,Wunderground v.1.15,2013-01-05 01:07:00,
2013-01-04 19:13:00,22.2,18.4,30.18,WSW,242,0.0,10.0,85,0.00,,,0.00,Wunderground v.1.15,2013-01-05 01:13:00,
2013-01-04 19:19:00,21.9,18.4,30.18,WSW,242,0.0,10.0,86,0.00,,,0.00,Wunderground v.1.15,2013-01-05 01:19:00,
2013-01-04 19:25:00,21.8,18.5,30.18,WSW,242,0.0,10.0,87,0.00,,,0.00,Wunderground v.1.15,2013-01-05 01:25:00,
2013-01-04 19:32:00,22.3,19.0,30.18,WSW,253,0.0,10.0,87,0.00,,,0.00,Wunderground v.1.15,2013-01-05 01:32:00,
2013-01-04 19:37:00,22.7,19.1,30.18,WSW,252,0.0,10.0,86,0.00,,,0.00,Wunderground v.1.15,2013-01-05 01:37:00,
2013-01-04 19:43:00,22.7,18.9,30.18,West,267,0.0,10.0,85,0.00,,,0.00,Wunderground v.1.15,2013-01-05 01:43:00,
2013-01-04 19:50:00,22.6,18.8,30.18,WSW,255,0.0,10.0,85,0.00,,,0.00,Wunderground v.1.15,2013-01-05 01:50:00,
2013-01-04 19:55:00,22.4,18.8,30.18,WSW,242,0.0,10.0,86,0.00,,,0.00,Wunderground v.1.15,2013-01-05 01:55:00,
2013-01-04 20:01:00,22.4,18.6,30.18,WSW,245,0.0,10.0,85,0.00,,,0.00,Wunderground v.1.15,2013-01-05 02:01:00,
2013-01-04 20:07:00,22.3,18.5,30.18,WSW,253,0.0,10.0,85,0.00,,,0.00,Wunderground v.1.15,2013-01-05 02:07:00,
2013-01-04 20:13:00,22.2,18.7,30.18,NNW,337,0.0,10.0,86,0.00,,,0.00,Wunderground v.1.15,2013-01-05 02:13:00,
2013-01-04 20:19:00,22.0,18.5,30.18,NNW,338,0.0,10.0,86,0.00,,,0.00,Wunderground v.1.15,2013-01-05 02:19:00,
2013-01-04 20:25:00,22.0,18.5,30.18,West,264,0.0,10.0,86,0.00,,,0.00,Wunderground v.1.15,2013-01-05 02:25:00,
2013-01-04 20:31:00,22.3,18.7,30.18,West,274,1.0,10.0,86,0.00,,,0.00,Wunderground v.1.15,2013-01-05 02:31:00,
2013-01-04 20:37:00,22.2,18.4,30.18,WSW,245,1.0,10.0,85,0.00,,,0.00,Wunderground v.1.15,2013-01-05 02:37:00,
2013-01-04 20:43:00,21.9,18.4,30.17,WSW,248,0.0,10.0,86,0.00,,,0.00,Wunderground v.1.15,2013-01-05 02:43:00,
2013-01-04 20:50:00,21.9,18.1,30.17,WSW,248,0.0,10.0,85,0.00,,,0.00,Wunderground v.1.15,2013-01-05 02:50:00,
2013-01-04 20:55:00,21.8,18.0,30.17,WSW,250,0.0,10.0,85,0.00,,,0.00,Wunderground v.1.15,2013-01-05 02:55:00,
2013-01-04 21:01:00,21.5,18.0,30.16,WSW,249,0.0,10.0,86,0.00,,,0.00,Wunderground v.1.15,2013-01-05 03:01:00,
2013-01-04 21:07:00,21.2,17.7,30.16,WSW,249,0.0,10.0,86,0.00,,,0.00,Wunderground v.1.15,2013-01-05 03:07:00,
2013-01-04 21:13:00,20.9,17.4,30.16,WSW,249,0.0,10.0,86,0.00,,,0.00,Wunderground v.1.15,2013-01-05 03:13:00,
2013-01-04 21:20:00,20.4,17.1,30.16,WSW,249,0.0,10.0,87,0.00,,,0.00,Wunderground v.1.15,2013-01-05 03:20:00,
2013-01-04 21:25:00,20.0,17.0,30.15,WSW,248,0.0,10.0,88,0.00,,,0.00,Wunderground v.1.15,2013-01-05 03:25:00,
2013-01-04 21:31:00,19.6,16.9,30.15,WSW,249,0.0,10.0,89,0.00,,,0.00,Wunderground v.1.15,2013-01-05 03:31:00,
2013-01-04 21:37:00,19.3,16.6,30.15,WSW,249,0.0,10.0,89,0.00,,,0.00,Wunderground v.1.15,2013-01-05 03:37:00,
2013-01-04 21:43:00,19.2,16.7,30.14,WSW,249,0.0,10.0,90,0.00,,,0.00,Wunderground v.1.15,2013-01-05 03:43:00,
2013-01-04 21:50:00,18.9,16.5,30.14,South,173,0.0,10.0,90,0.00,,,0.00,Wunderground v.1.15,2013-01-05 03:50:00,
2013-01-04 21:55:00,18.7,16.3,30.14,SSE,149,0.0,10.0,90,0.00,,,0.00,Wunderground v.1.15,2013-01-05 03:55:00,
2013-01-04 22:01:00,18.3,15.6,30.14,SE,136,1.0,10.0,89,0.00,,,0.00,Wunderground v.1.15,2013-01-05 04:01:00,
2013-01-04 22:08:00,17.9,14.9,30.15,SSE,160,1.0,10.0,88,0.00,,,0.00,Wunderground v.1.15,2013-01-05 04:08:00,
2013-01-04 22:13:00,17.6,14.9,30.15,SSE,159,1.0,10.0,89,0.00,,,0.00,Wunderground v.1.15,2013-01-05 04:13:00,
2013-01-04 22:19:00,17.2,14.5,30.15,ESE,123,0.0,10.0,89,0.00,,,0.00,Wunderground v.1.15,2013-01-05 04:19:00,
2013-01-04 22:25:00,17.3,15.1,30.16,SE,124,0.0,10.0,91,0.00,,,0.00,Wunderground v.1.15,2013-01-05 04:25:00,
2013-01-04 22:31:00,17.3,15.1,30.16,SSE,160,0.0,10.0,91,0.00,,,0.00,Wunderground v.1.15,2013-01-05 04:31:00,
2013-01-04 22:38:00,17.2,14.8,30.16,SSE,156,0.0,10.0,90,0.00,,,0.00,Wunderground v.1.15,2013-01-05 04:38:00,
2013-01-04 22:43:00,17.0,14.6,30.16,SSE,154,0.0,10.0,90,0.00,,,0.00,Wunderground v.1.15,2013-01-05 04:43:00,
2013-01-04 22:49:00,17.0,14.6,30.16,SE,131,1.0,10.0,90,0.00,,,0.00,Wunderground v.1.15,2013-01-05 04:49:00,
2013-01-04 22:55:00,17.0,14.6,30.16,SE,134,1.0,10.0,90,0.00,,,0.00,Wunderground v.1.15,2013-01-05 04:55:00,
2013-01-04 23:02:00,17.1,14.9,30.16,SE,134,1.0,10.0,91,0.00,,,0.00,Wunderground v.1.15,2013-01-05 05:02:00,
2013-01-04 23:07:00,17.1,14.7,30.16,SE,135,0.0,10.0,90,0.00,,,0.00,Wunderground v.1.15,2013-01-05 05:07:00,
2013-01-04 23:09:00,17.1,14.7,30.16,SE,136,0.0,10.0,90,0.00,,,0.00,Wunderground v.1.15,2013-01-05 05:09:00,
2013-01-04 23:11:00,17.0,14.6,30.16,SE,144,0.0,10.0,90,0.00,,,0.00,Wunderground v.1.15,2013-01-05 05:11:00,
2013-01-04 23:17:00,16.9,14.5,30.16,SE,136,0.0,10.0,90,0.00,,,0.00,Wunderground v.1.15,2013-01-05 05:17:00,
2013-01-04 23:23:00,17.0,14.6,30.16,SE,139,0.0,10.0,90,0.00,,,0.00,Wunderground v.1.15,2013-01-05 05:23:00,
2013-01-04 23:30:00,17.1,14.7,30.15,SE,135,0.0,10.0,90,0.00,,,0.00,Wunderground v.1.15,2013-01-05 05:30:00,
2013-01-04 23:35:00,17.0,14.6,30.15,SSE,153,0.0,10.0,90,0.00,,,0.00,Wunderground v.1.15,2013-01-05 05:35:00,
2013-01-04 23:41:00,16.9,14.5,30.15,SE,139,0.0,10.0,90,0.00,,,0.00,Wunderground v.1.15,2013-01-05 05:41:00,
2013-01-04 23:47:00,16.9,14.5,30.14,SE,134,0.0,10.0,90,0.00,,,0.00,Wunderground v.1.15,2013-01-05 05:47:00,
2013-01-04 23:53:00,17.0,14.8,30.14,SE,134,0.0,10.0,91,0.00,,,0.00,Wunderground v.1.15,2013-01-05 05:53:00,